Time;durP1;ratioP1;P1;durP2;ratioP2;P2;SDS_P1;SDS_P2;PMS_P1;PMS_P2;Temp;Humidity;BMP_temperature;BMP_pressure;BME280_temperature;BME280_humidity;BME280_pressure;Samples;Min_cycle;Max_cycle;Signal;HPM_P1;HPM_P2
2022/07/09 00:01:38;;;;;;;15.18;7.65;;;16.70;99.90;;;;;;5034122;28;20092;-66
2022/07/09 00:04:04;;;;;;;17.83;9.13;;;16.80;99.90;;;;;;5033206;28;20096;-66
2022/07/09 00:06:31;;;;;;;16.85;8.32;;;16.80;99.90;;;;;;5034751;28;20041;-66
2022/07/09 00:08:57;;;;;;;14.23;8.07;;;16.90;99.90;;;;;;5034462;28;20472;-66
2022/07/09 00:11:23;;;;;;;22.70;8.73;;;16.80;99.90;;;;;;5034499;28;20049;-66
2022/07/09 00:13:49;;;;;;;16.50;8.63;;;16.90;99.90;;;;;;5034303;28;20349;-66
2022/07/09 00:16:14;;;;;;;19.48;9.10;;;17.00;99.90;;;;;;5033956;28;20041;-66
2022/07/09 00:18:40;;;;;;;15.32;8.38;;;17.00;99.90;;;;;;5034617;28;20046;-66
2022/07/09 00:21:05;;;;;;;19.00;8.63;;;16.80;99.90;;;;;;5034555;28;20038;-66
2022/07/09 00:23:31;;;;;;;16.73;8.45;;;17.00;99.90;;;;;;5034419;28;20048;-66
2022/07/09 00:25:57;;;;;;;16.55;8.05;;;16.90;99.90;;;;;;5034107;28;20394;-66
2022/07/09 00:28:22;;;;;;;16.75;7.75;;;16.80;99.90;;;;;;5034196;28;20049;-66
2022/07/09 00:30:48;;;;;;;16.05;7.70;;;17.00;99.90;;;;;;5033399;28;20056;-66
2022/07/09 00:33:13;;;;;;;16.30;8.32;;;16.70;99.90;;;;;;5034365;28;20120;-66
2022/07/09 00:35:39;;;;;;;15.43;7.45;;;16.90;99.90;;;;;;5034446;28;20104;-69
2022/07/09 00:38:05;;;;;;;14.98;8.23;;;16.80;99.90;;;;;;5034310;28;20050;-69
2022/07/09 00:40:31;;;;;;;15.90;7.07;;;16.80;99.90;;;;;;5034252;28;20429;-69
2022/07/09 00:42:56;;;;;;;15.25;7.18;;;16.90;99.90;;;;;;5034489;28;20085;-69
2022/07/09 00:45:22;;;;;;;12.88;6.90;;;16.70;99.90;;;;;;5034851;28;20104;-68
2022/07/09 00:47:48;;;;;;;13.38;7.97;;;16.70;99.90;;;;;;5037931;28;20041;-66
2022/07/09 00:50:14;;;;;;;11.55;7.22;;;16.90;99.90;;;;;;5037974;28;20033;-66
2022/07/09 00:52:40;;;;;;;18.48;6.95;;;16.90;99.90;;;;;;5037764;28;20052;-66
2022/07/09 00:55:07;;;;;;;14.15;7.82;;;16.90;99.90;;;;;;5037721;28;20049;-66
2022/07/09 00:57:34;;;;;;;17.10;7.40;;;16.90;99.90;;;;;;5037761;28;20049;-66
2022/07/09 01:00:00;;;;;;;18.08;7.10;;;16.70;99.90;;;;;;5037088;28;20041;-66
2022/07/09 01:02:26;;;;;;;13.20;6.80;;;16.80;99.90;;;;;;5032232;28;20068;-66
2022/07/09 01:04:52;;;;;;;14.10;5.95;;;16.80;99.90;;;;;;5037315;28;20478;-66
2022/07/09 01:07:17;;;;;;;12.10;6.13;;;16.80;99.90;;;;;;5036393;28;20377;-66
2022/07/09 01:09:43;;;;;;;20.60;6.63;;;16.90;99.90;;;;;;5037053;28;20456;-66
2022/07/09 01:12:09;;;;;;;11.07;5.82;;;16.70;99.90;;;;;;5035731;28;20192;-66
2022/07/09 01:14:34;;;;;;;11.50;6.32;;;16.70;99.90;;;;;;5027692;28;20037;-66
2022/07/09 01:17:02;;;;;;;15.90;6.90;;;16.70;99.90;;;;;;5035182;28;20124;-66
2022/07/09 01:19:29;;;;;;;11.93;5.82;;;16.70;99.90;;;;;;5019585;28;20058;-66
2022/07/09 01:21:56;;;;;;;12.57;5.57;;;16.80;99.90;;;;;;5026590;28;20071;-66
2022/07/09 01:24:23;;;;;;;10.88;5.40;;;16.70;99.90;;;;;;5023671;28;20428;-66
2022/07/09 01:26:49;;;;;;;10.43;5.85;;;16.80;99.90;;;;;;5033895;28;20049;-66
2022/07/09 01:29:15;;;;;;;8.40;5.32;;;16.90;99.90;;;;;;5032272;28;20475;-66
2022/07/09 01:31:40;;;;;;;11.07;5.38;;;16.80;99.90;;;;;;5024340;28;20050;-66
2022/07/09 01:34:06;;;;;;;12.15;6.05;;;16.90;99.90;;;;;;5025649;28;20131;-67
2022/07/09 01:36:33;;;;;;;11.13;5.28;;;16.90;99.90;;;;;;5031201;28;20043;-66
2022/07/09 01:38:59;;;;;;;11.18;5.60;;;16.80;99.90;;;;;;5020306;28;20456;-66
2022/07/09 01:41:25;;;;;;;14.75;5.85;;;16.90;99.90;;;;;;5031074;28;20052;-66
2022/07/09 01:43:50;;;;;;;13.05;6.57;;;16.70;99.90;;;;;;5024599;28;20073;-66
2022/07/09 01:46:16;;;;;;;12.43;6.30;;;16.80;99.90;;;;;;5036539;28;20056;-66
2022/07/09 01:48:42;;;;;;;12.60;6.10;;;16.70;99.90;;;;;;5020917;28;20041;-66
2022/07/09 01:51:09;;;;;;;11.68;6.00;;;16.70;99.90;;;;;;5032872;28;20050;-66
2022/07/09 01:53:35;;;;;;;10.48;5.88;;;16.70;99.90;;;;;;5023224;28;20073;-66
2022/07/09 01:56:05;;;;;;;13.30;5.90;;;16.80;99.90;;;;;;5025740;28;20080;-66
2022/07/09 01:58:31;;;;;;;10.77;5.30;;;16.80;99.90;;;;;;5029907;28;20052;-66
2022/07/09 02:00:57;;;;;;;19.02;6.28;;;16.80;99.90;;;;;;5018397;28;20037;-66
2022/07/09 02:03:22;;;;;;;14.55;5.97;;;16.70;99.90;;;;;;5025643;28;20471;-66
2022/07/09 02:05:48;;;;;;;11.35;5.10;;;16.80;99.90;;;;;;5007502;28;20057;-66
2022/07/09 02:08:14;;;;;;;14.23;5.97;;;16.50;99.90;;;;;;5024270;28;20042;-66
2022/07/09 02:10:39;;;;;;;16.58;6.18;;;16.70;99.90;;;;;;5016502;28;20479;-67
2022/07/09 02:13:05;;;;;;;15.40;6.47;;;16.70;99.90;;;;;;5030192;28;20048;-67
2022/07/09 02:15:31;;;;;;;13.40;6.15;;;16.60;99.90;;;;;;5036511;28;20157;-67
2022/07/09 02:17:56;;;;;;;13.18;6.60;;;16.70;99.90;;;;;;5036299;28;20116;-66
2022/07/09 02:20:22;;;;;;;13.20;5.78;;;16.50;99.90;;;;;;5036169;28;20064;-67
2022/07/09 02:22:48;;;;;;;10.43;5.65;;;16.60;99.90;;;;;;5036060;28;20041;-67
2022/07/09 02:25:13;;;;;;;10.95;6.15;;;16.60;99.90;;;;;;5036193;28;20041;-66
2022/07/09 02:27:39;;;;;;;15.50;7.35;;;16.50;99.90;;;;;;5018040;28;20065;-67
2022/07/09 02:30:05;;;;;;;15.43;7.30;;;16.60;99.90;;;;;;5035807;28;20091;-67
2022/07/09 02:32:31;;;;;;;17.02;6.90;;;16.60;99.90;;;;;;5035793;28;20057;-66
2022/07/09 02:34:56;;;;;;;13.27;7.05;;;16.60;99.90;;;;;;5035868;28;20057;-67
2022/07/09 02:37:22;;;;;;;15.32;7.25;;;16.60;99.90;;;;;;5035914;28;20046;-66
2022/07/09 02:39:47;;;;;;;14.52;7.65;;;16.50;99.90;;;;;;5035723;28;20080;-66
2022/07/09 02:42:13;;;;;;;17.55;8.88;;;16.40;99.90;;;;;;5035130;28;20103;-67
2022/07/09 02:44:40;;;;;;;14.32;7.57;;;16.40;99.90;;;;;;5035926;28;20049;-66
2022/07/09 02:47:05;;;;;;;14.50;8.27;;;16.40;99.90;;;;;;5035508;28;20164;-67
2022/07/09 02:49:31;;;;;;;12.35;7.18;;;16.60;99.90;;;;;;5035535;28;20124;-67
2022/07/09 02:51:59;;;;;;;15.90;8.32;;;16.50;99.90;;;;;;5035160;28;20049;-67
2022/07/09 02:54:24;;;;;;;11.60;7.82;;;16.30;99.90;;;;;;5035467;28;20452;-67
2022/07/09 02:56:50;;;;;;;14.63;8.88;;;16.40;99.90;;;;;;5034734;28;20041;-66
2022/07/09 02:59:15;;;;;;;15.73;7.75;;;16.60;99.90;;;;;;5035771;28;20045;-66
2022/07/09 03:01:41;;;;;;;11.60;8.25;;;16.40;99.90;;;;;;5035096;28;20456;-66
2022/07/09 03:04:07;;;;;;;13.93;8.00;;;16.40;99.90;;;;;;5035334;28;20099;-67
2022/07/09 03:06:32;;;;;;;13.30;8.13;;;16.40;99.90;;;;;;5035355;28;20053;-66
2022/07/09 03:08:58;;;;;;;11.45;7.68;;;16.40;99.90;;;;;;5035045;28;20049;-67
2022/07/09 03:11:23;;;;;;;12.60;7.93;;;16.50;99.90;;;;;;5034553;28;20050;-67
2022/07/09 03:13:49;;;;;;;12.68;8.48;;;16.50;99.90;;;;;;5035230;28;20412;-66
2022/07/09 03:16:14;;;;;;;11.23;7.70;;;16.50;99.90;;;;;;5035287;28;20056;-66
2022/07/09 03:18:40;;;;;;;12.75;8.55;;;16.40;99.90;;;;;;5035173;28;20119;-67
2022/07/09 03:21:08;;;;;;;11.43;7.97;;;16.40;99.90;;;;;;5034914;28;20444;-67
2022/07/09 03:23:33;;;;;;;12.95;7.97;;;16.30;99.90;;;;;;5034588;28;20049;-66
2022/07/09 03:25:59;;;;;;;14.57;8.23;;;16.50;99.90;;;;;;5035069;28;20387;-66
2022/07/09 03:28:25;;;;;;;12.75;8.80;;;16.50;99.90;;;;;;5035064;28;20344;-66
2022/07/09 03:30:50;;;;;;;14.63;8.45;;;16.30;99.90;;;;;;5034657;28;20367;-67
2022/07/09 03:33:16;;;;;;;12.05;7.45;;;16.50;99.90;;;;;;5034838;28;20099;-66
2022/07/09 03:35:43;;;;;;;13.07;7.28;;;16.50;99.90;;;;;;5034797;28;20045;-67
2022/07/09 03:38:09;;;;;;;14.13;7.68;;;16.40;99.90;;;;;;5034076;28;20056;-66
2022/07/09 03:40:34;;;;;;;12.68;7.63;;;16.50;99.90;;;;;;5035039;28;20041;-66
2022/07/09 03:43:00;;;;;;;8.50;6.55;;;16.30;99.90;;;;;;5034950;28;20049;-66
2022/07/09 03:45:25;;;;;;;15.90;8.38;;;16.20;99.90;;;;;;5034853;28;20041;-66
2022/07/09 03:47:51;;;;;;;15.38;7.45;;;16.40;99.90;;;;;;5034883;28;20112;-67
2022/07/09 03:50:17;;;;;;;14.80;6.88;;;16.40;99.90;;;;;;5034907;28;20049;-66
2022/07/09 03:52:43;;;;;;;17.10;6.93;;;16.20;99.90;;;;;;5017643;28;20460;-66
2022/07/09 03:55:09;;;;;;;12.32;6.93;;;16.20;99.90;;;;;;5032787;28;20169;-67
2022/07/09 03:57:34;;;;;;;11.50;6.53;;;16.20;99.90;;;;;;5034703;28;20096;-66
2022/07/09 04:00:00;;;;;;;13.00;6.93;;;16.40;99.90;;;;;;5034937;28;20045;-67
2022/07/09 04:02:25;;;;;;;12.13;7.07;;;16.20;99.90;;;;;;5034680;28;20064;-66
2022/07/09 04:04:51;;;;;;;13.68;6.93;;;16.30;99.90;;;;;;5033656;28;20049;-66
2022/07/09 04:07:17;;;;;;;9.93;6.47;;;16.30;99.90;;;;;;5034031;28;20363;-67
2022/07/09 04:09:42;;;;;;;14.13;6.95;;;16.30;99.90;;;;;;5032757;28;20077;-66
2022/07/09 04:12:08;;;;;;;11.95;6.95;;;16.30;99.90;;;;;;5034564;28;20463;-66
2022/07/09 04:14:34;;;;;;;12.73;6.90;;;16.10;99.90;;;;;;5034656;28;20041;-67
2022/07/09 04:16:59;;;;;;;11.70;5.95;;;16.20;99.90;;;;;;5033429;28;20452;-67
2022/07/09 04:19:25;;;;;;;10.55;5.95;;;16.20;99.90;;;;;;5034552;28;20088;-66
2022/07/09 04:21:51;;;;;;;13.00;4.60;;;16.30;99.90;;;;;;5038431;28;20107;-66
2022/07/09 04:24:16;;;;;;;12.25;5.53;;;16.30;99.90;;;;;;5020793;28;20345;-66
2022/07/09 04:26:43;;;;;;;12.48;5.63;;;16.20;99.90;;;;;;5037793;28;20068;-67
2022/07/09 04:29:08;;;;;;;12.13;5.28;;;16.30;99.90;;;;;;5037881;28;20436;-66
2022/07/09 04:31:34;;;;;;;9.85;5.80;;;16.40;99.90;;;;;;5032064;28;20053;-66
2022/07/09 04:33:59;;;;;;;9.30;5.90;;;16.30;99.90;;;;;;5036705;28;20049;-66
2022/07/09 04:36:25;;;;;;;11.65;5.47;;;16.50;99.90;;;;;;5037797;28;20049;-66
2022/07/09 04:38:51;;;;;;;9.45;5.38;;;16.60;99.90;;;;;;5021361;28;20046;-66
2022/07/09 04:41:16;;;;;;;10.38;5.30;;;16.60;99.90;;;;;;5032627;28;20041;-66
2022/07/09 04:43:42;;;;;;;11.32;4.78;;;16.60;99.90;;;;;;5026574;28;20116;-66
2022/07/09 04:46:08;;;;;;;8.52;5.03;;;16.70;99.90;;;;;;5026617;28;20448;-66
2022/07/09 04:48:34;;;;;;;13.85;6.22;;;16.60;99.90;;;;;;5033223;28;20517;-67
2022/07/09 04:50:59;;;;;;;11.85;5.85;;;16.70;99.90;;;;;;5021167;28;20128;-67
2022/07/09 04:53:25;;;;;;;11.75;5.15;;;16.80;99.90;;;;;;5031313;28;20421;-66
2022/07/09 04:55:50;;;;;;;8.02;4.85;;;16.70;99.90;;;;;;5027770;28;20353;-66
2022/07/09 04:58:16;;;;;;;10.70;5.38;;;16.70;99.90;;;;;;5036528;28;20341;-66
2022/07/09 05:00:42;;;;;;;7.78;4.70;;;16.70;99.90;;;;;;5038039;28;20033;-66
2022/07/09 05:03:08;;;;;;;10.63;4.88;;;17.00;99.90;;;;;;5033451;28;20034;-66
2022/07/09 05:05:34;;;;;;;8.30;4.63;;;17.00;99.90;;;;;;5025119;28;20033;-67
2022/07/09 05:07:59;;;;;;;11.88;4.70;;;17.00;99.90;;;;;;5036594;28;20103;-67
2022/07/09 05:10:25;;;;;;;7.63;4.72;;;16.80;99.90;;;;;;5022602;28;20121;-67
2022/07/09 05:12:50;;;;;;;10.07;4.15;;;16.90;99.90;;;;;;5034036;28;20041;-67
2022/07/09 05:15:16;;;;;;;11.77;4.65;;;17.00;99.90;;;;;;5024012;28;20053;-67
2022/07/09 05:17:42;;;;;;;10.82;4.57;;;17.10;99.90;;;;;;5023271;28;20042;-67
2022/07/09 05:20:08;;;;;;;8.80;3.83;;;17.10;99.90;;;;;;5029336;28;20060;-67
2022/07/09 05:22:36;;;;;;;7.18;4.38;;;17.10;99.90;;;;;;5020972;28;20121;-66
2022/07/09 05:25:03;;;;;;;8.98;4.13;;;17.00;99.90;;;;;;5033205;28;20427;-67
2022/07/09 05:27:29;;;;;;;9.93;4.70;;;17.10;99.90;;;;;;5023898;28;20388;-66
2022/07/09 05:29:54;;;;;;;7.28;4.30;;;17.10;99.90;;;;;;5148056;23;20072;-68
2022/07/09 05:32:20;;;;;;;8.82;4.30;;;17.20;99.90;;;;;;5026331;28;20055;-67
2022/07/09 05:34:46;;;;;;;8.55;4.25;;;17.20;99.90;;;;;;5026688;28;20476;-67
2022/07/09 05:37:12;;;;;;;7.95;3.97;;;17.10;99.90;;;;;;5035754;28;20057;-67
2022/07/09 05:39:37;;;;;;;9.25;4.72;;;17.10;99.90;;;;;;5033072;28;20445;-66
2022/07/09 05:42:03;;;;;;;7.90;3.80;;;17.20;99.90;;;;;;5036609;28;20359;-66
2022/07/09 05:44:30;;;;;;;6.95;3.83;;;17.30;99.90;;;;;;5036815;28;20049;-66
2022/07/09 05:46:56;;;;;;;9.73;4.18;;;17.20;99.90;;;;;;5030690;28;20045;-66
2022/07/09 05:49:21;;;;;;;7.95;3.72;;;17.20;99.90;;;;;;5022339;28;20033;-66
2022/07/09 05:51:47;;;;;;;11.93;5.53;;;17.40;99.90;;;;;;5036316;28;20096;-68
2022/07/09 05:54:13;;;;;;;7.05;3.90;;;17.40;99.90;;;;;;5036468;28;20045;-66
2022/07/09 05:56:39;;;;;;;13.68;4.40;;;17.40;99.90;;;;;;5034835;28;20037;-69
2022/07/09 05:59:04;;;;;;;12.57;4.25;;;17.30;99.90;;;;;;5036129;28;20050;-69
2022/07/09 06:01:30;;;;;;;10.07;3.92;;;17.50;99.90;;;;;;5035509;28;20352;-69
2022/07/09 06:03:56;;;;;;;8.73;4.20;;;17.50;99.90;;;;;;5024944;28;20452;-67
2022/07/09 06:06:22;;;;;;;9.02;3.72;;;17.50;99.90;;;;;;5036104;28;20119;-70
2022/07/09 06:08:48;;;;;;;6.97;3.60;;;17.40;99.90;;;;;;5036143;28;20053;-67
2022/07/09 06:11:13;;;;;;;6.43;3.83;;;17.60;99.90;;;;;;5033872;28;20175;-67
2022/07/09 06:13:39;;;;;;;9.00;3.55;;;17.60;99.90;;;;;;5016674;28;20038;-67
2022/07/09 06:16:05;;;;;;;6.60;3.42;;;17.60;99.90;;;;;;5022687;28;20116;-68
2022/07/09 06:18:31;;;;;;;7.65;3.50;;;17.50;99.90;;;;;;5036044;28;20508;-68
2022/07/09 06:20:57;;;;;;;13.15;5.00;;;17.60;99.90;;;;;;5035931;28;20132;-70
2022/07/09 06:23:23;;;;;;;10.82;4.10;;;17.40;99.90;;;;;;4984711;28;20061;-71
2022/07/09 06:25:48;;;;;;;11.57;3.80;;;17.60;99.90;;;;;;5016629;28;20073;-70
2022/07/09 06:28:14;;;;;;;7.40;4.03;;;17.50;99.90;;;;;;5016567;28;20052;-70
2022/07/09 06:30:39;;;;;;;10.27;3.60;;;17.70;99.90;;;;;;5016092;28;20096;-70
2022/07/09 06:33:05;;;;;;;9.80;3.63;;;17.60;99.90;;;;;;5027221;28;20475;-69
2022/07/09 06:35:31;;;;;;;13.10;3.95;;;17.50;99.90;;;;;;5035785;28;20045;-69
2022/07/09 06:37:57;;;;;;;7.00;3.30;;;17.60;99.90;;;;;;5035300;28;20053;-72
2022/07/09 06:40:22;;;;;;;8.52;3.20;;;17.60;99.90;;;;;;5001168;28;20057;-70
2022/07/09 06:42:48;;;;;;;9.70;3.35;;;17.60;99.90;;;;;;5035572;28;20041;-70
2022/07/09 06:45:14;;;;;;;10.40;3.70;;;17.50;99.90;;;;;;5035623;28;20372;-72
2022/07/09 06:47:40;;;;;;;15.40;3.90;;;17.60;99.90;;;;;;5035528;28;20045;-69
2022/07/09 06:50:06;;;;;;;8.65;3.67;;;17.70;99.90;;;;;;5035571;28;20044;-71
2022/07/09 06:52:32;;;;;;;16.60;3.70;;;17.60;99.90;;;;;;5034049;28;20052;-71
2022/07/09 06:54:58;;;;;;;10.93;3.58;;;17.70;99.90;;;;;;5035805;28;20056;-71
2022/07/09 06:57:23;;;;;;;11.52;4.22;;;17.50;99.90;;;;;;5017541;28;20458;-71
2022/07/09 06:59:49;;;;;;;12.65;3.65;;;17.60;99.90;;;;;;5015896;28;20349;-71
2022/07/09 07:02:18;;;;;;;11.60;3.50;;;17.80;99.90;;;;;;5015797;28;20103;-70
2022/07/09 07:04:43;;;;;;;11.65;3.70;;;17.80;99.90;;;;;;5015633;28;20048;-71
2022/07/09 07:07:09;;;;;;;15.10;3.80;;;17.70;99.90;;;;;;5015701;28;20045;-71
2022/07/09 07:09:34;;;;;;;12.30;3.42;;;17.70;99.90;;;;;;5015514;28;20506;-70
2022/07/09 07:12:01;;;;;;;13.13;3.92;;;17.80;99.90;;;;;;5015243;28;20082;-70
2022/07/09 07:14:26;;;;;;;9.23;2.90;;;17.60;99.90;;;;;;5015553;28;20129;-70
2022/07/09 07:16:53;;;;;;;10.52;2.97;;;17.60;99.90;;;;;;5015509;28;20137;-68
2022/07/09 07:19:20;;;;;;;10.90;3.65;;;17.60;99.90;;;;;;5015498;28;20042;-68
2022/07/09 07:21:47;;;;;;;11.75;3.13;;;17.50;99.90;;;;;;5015206;28;20116;-69
2022/07/09 07:24:13;;;;;;;18.88;3.60;;;17.50;99.90;;;;;;5015169;28;20111;-70
2022/07/09 07:26:38;;;;;;;7.90;3.20;;;17.50;99.90;;;;;;5015401;28;20049;-68
2022/07/09 07:29:04;;;;;;;8.23;3.33;;;17.60;99.90;;;;;;5015189;28;20050;-68
2022/07/09 07:31:30;;;;;;;15.35;3.92;;;17.50;99.90;;;;;;5015020;28;20092;-68
2022/07/09 07:33:57;;;;;;;6.97;3.30;;;17.70;99.90;;;;;;5015176;28;20068;-68
2022/07/09 07:36:22;;;;;;;14.05;3.78;;;17.70;99.90;;;;;;5015225;28;20068;-68
2022/07/09 07:38:48;;;;;;;13.18;3.40;;;18.00;99.90;;;;;;5014200;28;20456;-69
2022/07/09 07:41:16;;;;;;;7.50;2.95;;;18.00;99.90;;;;;;5015354;28;20054;-68
2022/07/09 07:43:42;;;;;;;10.32;3.85;;;18.20;99.90;;;;;;5014530;28;20432;-68
2022/07/09 07:46:08;;;;;;;8.63;3.22;;;18.20;99.90;;;;;;5014144;28;20049;-69
2022/07/09 07:48:35;;;;;;;8.32;2.88;;;18.20;99.90;;;;;;5014425;28;20112;-70
2022/07/09 07:51:02;;;;;;;8.55;3.00;;;18.30;99.90;;;;;;5015022;28;20116;-70
2022/07/09 07:53:29;;;;;;;12.10;3.25;;;18.50;99.90;;;;;;5015052;28;20042;-70
2022/07/09 07:55:55;;;;;;;7.65;2.50;;;18.50;99.90;;;;;;5016218;28;20050;-70
2022/07/09 07:58:20;;;;;;;9.65;3.55;;;18.70;99.90;;;;;;5018926;28;20060;-70
2022/07/09 08:00:46;;;;;;;10.15;3.15;;;18.70;99.90;;;;;;5018627;28;20137;-69
2022/07/09 08:03:11;;;;;;;6.82;2.75;;;18.50;99.90;;;;;;5019159;28;20046;-69
2022/07/09 08:05:37;;;;;;;8.85;2.88;;;18.50;99.90;;;;;;5018576;28;20416;-69
2022/07/09 08:08:03;;;;;;;8.65;2.67;;;18.50;99.90;;;;;;5018788;28;20068;-69
2022/07/09 08:10:28;;;;;;;6.05;2.85;;;18.70;99.90;;;;;;5013000;28;20486;-69
2022/07/09 08:12:54;;;;;;;10.18;3.33;;;18.60;99.90;;;;;;5004306;28;20117;-69
2022/07/09 08:15:19;;;;;;;12.00;3.20;;;18.70;99.90;;;;;;5002713;28;20057;-69
2022/07/09 08:17:45;;;;;;;8.02;3.55;;;18.70;99.90;;;;;;5017683;28;20088;-69
2022/07/09 08:20:11;;;;;;;11.45;3.15;;;18.70;99.90;;;;;;5018363;28;20046;-69
2022/07/09 08:22:37;;;;;;;11.15;3.30;;;18.50;99.90;;;;;;5018080;28;20042;-69
2022/07/09 08:25:03;;;;;;;9.82;3.17;;;18.60;99.90;;;;;;5018209;28;20475;-69
2022/07/09 08:27:29;;;;;;;6.97;2.80;;;18.60;99.90;;;;;;5016672;28;20045;-69
2022/07/09 08:29:54;;;;;;;10.20;3.58;;;18.50;99.90;;;;;;5025375;28;20057;-69
2022/07/09 08:32:20;;;;;;;7.68;3.10;;;18.70;99.90;;;;;;5030128;28;20383;-69
2022/07/09 08:34:46;;;;;;;8.68;2.90;;;18.70;99.90;;;;;;5022313;28;20249;-69
2022/07/09 08:37:11;;;;;;;6.97;3.00;;;18.50;99.90;;;;;;5034252;28;20054;-69
2022/07/09 08:39:38;;;;;;;9.13;2.67;;;18.60;99.90;;;;;;5024057;28;20464;-69
2022/07/09 08:42:09;;;;;;;9.55;3.00;;;18.60;99.90;;;;;;5031994;28;20041;-69
2022/07/09 08:44:38;;;;;;;9.35;3.10;;;18.70;99.90;;;;;;4987265;28;20452;-69
2022/07/09 08:47:04;;;;;;;10.23;3.15;;;18.80;99.90;;;;;;5032082;28;20037;-69
2022/07/09 08:49:31;;;;;;;10.50;3.17;;;18.90;99.90;;;;;;5022856;28;20034;-69
2022/07/09 08:51:57;;;;;;;8.77;2.90;;;19.00;99.90;;;;;;5028490;28;20376;-69
2022/07/09 08:54:23;;;;;;;10.80;3.58;;;19.10;99.90;;;;;;5024108;28;20048;-69
2022/07/09 08:56:52;;;;;;;15.68;3.70;;;19.20;99.90;;;;;;5033142;28;20474;-69
2022/07/09 08:59:18;;;;;;;7.32;2.60;;;19.40;99.90;;;;;;5020758;28;20116;-69
2022/07/09 09:01:43;;;;;;;9.73;3.00;;;19.40;99.90;;;;;;5030230;28;20117;-69
2022/07/09 09:04:09;;;;;;;9.10;2.65;;;19.60;99.90;;;;;;5027935;28;20455;-69
2022/07/09 09:06:42;;;;;;;4.82;2.55;;;19.50;99.90;;;;;;5023512;28;20037;-69
2022/07/09 09:09:08;;;;;;;10.88;2.80;;;19.60;99.90;;;;;;5031979;28;20034;-69
2022/07/09 09:11:36;;;;;;;9.20;3.10;;;19.70;99.90;;;;;;5031346;28;20041;-69
2022/07/09 09:14:02;;;;;;;14.18;3.55;;;19.50;99.90;;;;;;5026259;28;20464;-69
2022/07/09 09:16:28;;;;;;;15.15;3.90;;;19.80;99.90;;;;;;5024003;28;20502;-70
2022/07/09 09:18:55;;;;;;;9.77;3.40;;;19.60;99.90;;;;;;5033724;28;20124;-69
2022/07/09 09:21:23;;;;;;;14.02;3.80;;;19.60;99.90;;;;;;5020767;28;20052;-69
2022/07/09 09:23:53;;;;;;;8.93;3.00;;;19.50;99.90;;;;;;5025850;28;20046;-69
2022/07/09 09:26:24;;;;;;;10.80;3.40;;;19.60;99.90;;;;;;5020628;28;20050;-69
2022/07/09 09:28:54;;;;;;;13.43;3.50;;;19.80;99.90;;;;;;5027957;28;20053;-70
2022/07/09 09:31:21;;;;;;;7.93;3.13;;;19.80;99.90;;;;;;5020850;28;20042;-69
2022/07/09 09:33:46;;;;;;;9.35;3.25;;;19.90;99.90;;;;;;5036935;28;20056;-69
2022/07/09 09:36:29;;;;;;;10.30;2.92;;;19.80;99.90;;;;;;5036337;28;20464;-69
2022/07/09 09:39:06;;;;;;;7.95;2.92;;;19.70;99.90;;;;;;5029008;28;20457;-70
2022/07/09 09:41:33;;;;;;;9.70;3.67;;;19.90;99.90;;;;;;5036662;28;20455;-69
2022/07/09 09:44:03;;;;;;;11.70;3.90;;;19.90;99.90;;;;;;5036746;28;20049;-69
2022/07/09 09:46:29;;;;;;;9.77;3.83;;;20.00;99.90;;;;;;5036702;28;20042;-69
2022/07/09 09:48:56;;;;;;;15.18;4.50;;;20.10;99.90;;;;;;5036293;28;20168;-70
2022/07/09 09:51:22;;;;;;;9.57;3.97;;;19.80;99.90;;;;;;5036595;28;20037;-69
2022/07/09 09:53:50;;;;;;;7.68;3.33;;;19.60;99.90;;;;;;5028285;28;20089;-69
2022/07/09 09:56:16;;;;;;;12.20;3.78;;;19.70;99.90;;;;;;5027992;28;20363;-69
2022/07/09 09:58:42;;;;;;;8.95;3.35;;;19.80;99.90;;;;;;5031893;28;20053;-69
2022/07/09 10:01:07;;;;;;;10.73;3.33;;;19.90;99.90;;;;;;5034939;28;20042;-69
2022/07/09 10:03:33;;;;;;;14.35;3.40;;;19.80;99.90;;;;;;5035607;28;20113;-69
2022/07/09 10:05:59;;;;;;;13.88;4.18;;;19.50;99.90;;;;;;5036205;28;20051;-69
2022/07/09 10:08:25;;;;;;;11.13;3.53;;;19.40;99.90;;;;;;5036143;28;20053;-69
2022/07/09 10:10:51;;;;;;;10.98;4.05;;;19.20;99.90;;;;;;5036116;28;20053;-71
2022/07/09 10:13:23;;;;;;;12.65;3.67;;;19.10;99.90;;;;;;5035279;28;20045;-69
2022/07/09 10:15:49;;;;;;;13.38;3.83;;;19.00;99.90;;;;;;5036033;28;20038;-71
2022/07/09 10:18:18;;;;;;;11.25;3.78;;;18.90;99.90;;;;;;5035259;28;20065;-71
2022/07/09 10:20:44;;;;;;;13.88;3.40;;;18.80;99.90;;;;;;5035992;28;20042;-71
2022/07/09 10:23:21;;;;;;;12.43;3.60;;;19.00;99.90;;;;;;5035670;28;20037;-71
2022/07/09 10:25:47;;;;;;;10.95;3.47;;;19.10;99.90;;;;;;5035973;28;20486;-71
2022/07/09 10:28:17;;;;;;;10.77;3.03;;;19.20;99.90;;;;;;5030207;28;20041;-71
2022/07/09 10:30:43;;;;;;;12.70;3.25;;;19.50;99.90;;;;;;5005609;28;20038;-71
2022/07/09 10:33:10;;;;;;;14.38;3.08;;;19.80;99.90;;;;;;5014377;28;20046;-71
2022/07/09 10:35:53;;;;;;;10.90;3.33;;;19.70;99.90;;;;;;5015701;28;20453;-71
2022/07/09 10:38:21;;;;;;;10.55;2.50;;;19.60;99.90;;;;;;5016128;28;20049;-71
2022/07/09 10:40:57;;;;;;;9.43;2.67;;;19.50;99.90;;;;;;5015822;28;20057;-71
2022/07/09 10:43:50;;;;;;;8.52;2.58;;;19.40;99.90;;;;;;5006931;28;20046;-71
2022/07/09 10:46:16;;;;;;;10.45;2.33;;;19.40;99.90;;;;;;5014945;28;20050;-71
2022/07/09 10:48:44;;;;;;;9.13;2.65;;;19.20;99.90;;;;;;5015631;28;20046;-71
2022/07/09 10:51:21;;;;;;;8.10;1.95;;;19.10;99.90;;;;;;5015571;28;20360;-71
2022/07/09 10:53:47;;;;;;;7.45;2.10;;;19.30;99.90;;;;;;4998185;28;20072;-71
2022/07/09 10:56:17;;;;;;;7.45;3.05;;;19.40;99.90;;;;;;5015435;28;20042;-71
2022/07/09 10:58:47;;;;;;;10.85;2.50;;;19.60;99.90;;;;;;5014564;28;20046;-71
2022/07/09 11:01:23;;;;;;;3.85;1.70;;;19.80;99.90;;;;;;5015364;28;20046;-71
2022/07/09 11:03:50;;;;;;;10.98;2.50;;;19.70;99.90;;;;;;5015146;28;20038;-71
2022/07/09 11:06:16;;;;;;;7.80;2.05;;;20.00;99.90;;;;;;5015357;28;20120;-71
2022/07/09 11:08:41;;;;;;;7.05;2.15;;;20.10;99.90;;;;;;5015397;28;20396;-71
2022/07/09 11:11:07;;;;;;;8.02;2.72;;;20.00;99.90;;;;;;5015009;28;20464;-71
2022/07/09 11:13:33;;;;;;;7.22;2.05;;;20.00;99.90;;;;;;5014348;28;20452;-71
2022/07/09 11:16:00;;;;;;;10.65;2.35;;;20.10;99.90;;;;;;5015411;28;20045;-71
2022/07/09 11:18:27;;;;;;;10.10;2.22;;;20.20;99.90;;;;;;5015301;28;20042;-71
2022/07/09 11:20:52;;;;;;;15.10;2.45;;;20.10;99.90;;;;;;4998030;28;20049;-71
2022/07/09 11:23:18;;;;;;;7.93;2.30;;;20.20;99.90;;;;;;5014936;28;20042;-71
2022/07/09 11:25:44;;;;;;;7.20;2.38;;;20.40;99.90;;;;;;5015133;28;20117;-71
2022/07/09 11:28:24;;;;;;;7.82;2.53;;;20.40;99.90;;;;;;5015715;28;20041;-71
2022/07/09 11:31:00;;;;;;;5.13;1.55;;;20.50;99.90;;;;;;5017935;28;20046;-71
2022/07/09 11:33:26;;;;;;;7.13;2.17;;;20.70;99.90;;;;;;5004359;28;20529;-71
2022/07/09 11:35:52;;;;;;;6.85;2.63;;;20.70;99.90;;;;;;5026655;28;20176;-71
2022/07/09 11:38:17;;;;;;;5.05;1.95;;;20.80;99.90;;;;;;5026291;28;20053;-71
2022/07/09 11:40:44;;;;;;;5.25;1.63;;;20.90;99.90;;;;;;5019655;28;20042;-71
2022/07/09 11:43:14;;;;;;;6.72;2.05;;;20.90;99.90;;;;;;5002759;28;20104;-69
2022/07/09 11:45:51;;;;;;;4.05;1.90;;;21.00;99.90;;;;;;5010659;28;20139;-69
2022/07/09 11:48:17;;;;;;;3.70;1.73;;;21.30;99.90;;;;;;5026068;28;20057;-70
2022/07/09 11:50:44;;;;;;;4.82;1.80;;;21.20;99.90;;;;;;5019493;28;20052;-69
2022/07/09 11:53:25;;;;;;;6.45;2.08;;;21.10;99.90;;;;;;5030966;28;20053;-69
2022/07/09 11:56:01;;;;;;;7.07;1.67;;;21.20;99.90;;;;;;5013239;28;20041;-69
2022/07/09 11:58:27;;;;;;;3.53;1.88;;;21.40;99.90;;;;;;5021430;28;20503;-69
2022/07/09 12:00:53;;;;;;;8.05;1.90;;;21.50;99.90;;;;;;5030986;28;20107;-69
2022/07/09 12:03:26;;;;;;;5.85;2.22;;;21.40;99.90;;;;;;5010065;28;20053;-69
2022/07/09 12:05:53;;;;;;;3.75;1.20;;;21.50;99.90;;;;;;5026792;28;20388;-69
2022/07/09 12:08:29;;;;;;;5.60;2.17;;;21.70;99.90;;;;;;5026380;28;20056;-70
2022/07/09 12:10:56;;;;;;;3.95;1.65;;;22.00;99.90;;;;;;5017663;28;20046;-70
2022/07/09 12:13:21;;;;;;;5.07;1.95;;;22.20;99.90;;;;;;5030588;28;20046;-70
2022/07/09 12:15:47;;;;;;;7.25;1.85;;;22.30;99.90;;;;;;5021437;28;20056;-69
2022/07/09 12:18:12;;;;;;;9.10;2.28;;;22.10;99.90;;;;;;5011593;28;20038;-70
2022/07/09 12:20:38;;;;;;;7.63;2.50;;;22.10;99.90;;;;;;5006282;28;20049;-69
2022/07/09 12:23:04;;;;;;;6.88;2.42;;;22.50;99.90;;;;;;5017755;28;20424;-70
2022/07/09 12:25:29;;;;;;;6.70;2.17;;;22.60;99.90;;;;;;5029352;28;20042;-70
2022/07/09 12:27:55;;;;;;;6.70;2.05;;;22.40;99.90;;;;;;5022605;28;20049;-70
2022/07/09 12:30:21;;;;;;;7.57;1.90;;;21.90;99.90;;;;;;5017104;28;20064;-70
2022/07/09 12:32:47;;;;;;;5.78;1.98;;;22.20;99.90;;;;;;5025477;28;20402;-69
2022/07/09 12:35:13;;;;;;;6.53;1.85;;;22.50;99.90;;;;;;5017586;28;20068;-69
2022/07/09 12:37:40;;;;;;;5.63;1.80;;;22.00;99.90;;;;;;5028185;28;20077;-70